| time (UTC) | temp C | wind direction | speed KPH | gust KPH | rain 1hr cm | rain 24hr cm | rain mn cm | humidity % | barometer mb |
| 20260509213030 | 30 | 200 | 0.0 | 6.4 | 0.00 | 0.00 | 0.00 | 53 | 1006.3 |
| 20260509211528 | 29 | 85 | 1.6 | 12.9 | 0.00 | 0.00 | 0.00 | 53 | 1006.5 |
| 20260509210031 | 29 | 128 | 0.0 | 11.3 | 0.00 | 0.00 | 0.00 | 53 | 1006.7 |
| 20260509204524 | 29 | 103 | 4.8 | 9.7 | 0.00 | 0.00 | 0.00 | 49 | 1006.9 |
| 20260509203021 | 29 | 155 | 0.0 | 3.2 | 0.00 | 0.00 | 0.00 | 51 | 1007.2 |
| 20260509201520 | 30 | 222 | 3.2 | 11.3 | 0.00 | 0.00 | 0.00 | 53 | 1007.4 |
| 20260509200016 | 30 | 275 | 0.0 | 8.0 | 0.00 | 0.00 | 0.00 | 56 | 1007.5 |
| 20260509194514 | 30 | 245 | 3.2 | 9.7 | 0.00 | 0.00 | 0.00 | 54 | 1007.7 |
| 20260509193014 | 29 | 302 | 1.6 | 8.0 | 0.00 | 0.00 | 0.00 | 57 | 1007.8 |
| 20260509191511 | 28 | 274 | 6.4 | 14.5 | 0.00 | 0.00 | 0.00 | 57 | 1008.1 |
| 20260509190008 | 28 | 315 | 0.0 | 3.2 | 0.00 | 0.00 | 0.00 | 62 | 1008.2 |
| 20260509184505 | 28 | 246 | 3.2 | 16.1 | 0.00 | 0.00 | 0.00 | 63 | 1008.4 |
| 20260509183004 | 27 | 256 | 0.0 | 14.5 | 0.00 | 0.00 | 0.00 | 65 | 1008.9 |
| 20260509181503 | 27 | 244 | 0.0 | 9.7 | 0.00 | 0.00 | 0.00 | 66 | 1009.2 |
| 20260509180002 | 27 | 180 | 0.0 | 8.0 | 0.00 | 0.00 | 0.00 | 65 | 1009.3 |
| 20260509174600 | 28 | 234 | 0.0 | 8.0 | 0.00 | 0.00 | 0.00 | 65 | 1009.3 |
| 20260509173057 | 27 | 267 | 0.0 | 6.4 | 0.00 | 0.00 | 0.00 | 67 | 1009.4 |
| 20260509171557 | 27 | 193 | 0.0 | 6.4 | 0.00 | 0.00 | 0.00 | 68 | 1009.6 |
| 20260509164555 | 26 | 194 | 0.0 | 8.0 | 0.00 | 0.00 | 0.00 | 72 | 1009.8 |
| 20260509163051 | 26 | 186 | 1.6 | 12.9 | 0.00 | 0.00 | 0.00 | 72 | 1009.9 |
| 20260509161556 | 26 | 197 | 0.0 | 8.0 | 0.00 | 0.00 | 0.00 | 72 | 1009.8 |
| 20260509160042 | 25 | 255 | 0.0 | 9.7 | 0.00 | 0.00 | 0.00 | 77 | 1009.6 |
| 20260509154539 | 25 | 11 | 0.0 | 6.4 | 0.00 | 0.00 | 0.00 | 80 | 1009.6 |
| 20260509153035 | 25 | 201 | 0.0 | 14.5 | 0.00 | 0.00 | 0.00 | 81 | 1009.7 |
| 20260509151536 | 24 | 234 | 11.3 | 19.3 | 0.00 | 0.00 | 0.00 | 84 | 1009.2 |
| 20260509150035 | 23 | 286 | 6.4 | 16.1 | 0.00 | 0.00 | 0.00 | 88 | 1009.4 |
| 20260509144531 | 22 | 207 | 6.4 | 20.9 | 0.00 | 0.00 | 0.00 | 89 | 1009.3 |
| 20260509143021 | 22 | 242 | 12.9 | 17.7 | 0.00 | 0.00 | 0.00 | 93 | 1009.1 |
| 20260509141521 | 21 | 360 | 11.3 | 20.9 | 0.00 | 0.00 | 0.00 | 95 | 1009.1 |
| 20260509140014 | 20 | 360 | 4.8 | 8.0 | 0.00 | 0.00 | 0.00 | 96 | 1009.0 |
| 20260509134514 | 20 | 119 | 0.0 | 1.6 | 0.00 | 0.00 | 0.00 | 96 | 1008.9 |
| 20260509133014 | 20 | 360 | 0.0 | 1.6 | 0.00 | 0.00 | 0.00 | 96 | 1008.6 |
| 20260509131524 | 20 | 360 | 3.2 | 6.4 | 0.00 | 0.00 | 0.00 | 96 | 1008.3 |
| 20260509130016 | 20 | 360 | 1.6 | 8.0 | 0.00 | 0.00 | 0.00 | 96 | 1008.0 |
| 20260509124510 | 19 | 360 | 3.2 | 14.5 | 0.00 | 0.00 | 0.00 | 96 | 1008.2 |
| 20260509123010 | 18 | 360 | 6.4 | 14.5 | 0.00 | 0.00 | 0.00 | 95 | 1008.7 |
| 20260509121516 | 18 | 360 | 8.0 | 14.5 | 0.00 | 0.00 | 0.00 | 95 | 1008.4 |
| 20260509120007 | 18 | 360 | 0.0 | 1.6 | 0.00 | 0.00 | 0.00 | 95 | 1008.7 |
| 20260509114512 | 18 | 360 | 0.0 | 0.0 | 0.00 | 0.00 | 0.00 | 95 | 1009.2 |
| 20260509113004 | 19 | 360 | 0.0 | 4.8 | 0.00 | 0.00 | 0.00 | 95 | 1009.6 |
| 20260509111504 | 19 | 360 | 0.0 | 1.6 | 0.00 | 0.00 | 0.00 | 94 | 1009.7 |
| 20260509110000 | 19 | 9 | 0.0 | 0.0 | 0.00 | 0.00 | 0.00 | 94 | 1010.2 |
| 20260509104600 | 20 | 360 | 0.0 | 3.2 | 0.00 | 0.20 | 0.00 | 94 | 1011.0 |
| 20260509103058 | 20 | 344 | 0.0 | 1.6 | 0.00 | 0.20 | 0.00 | 94 | 1011.0 |
| 20260509101557 | 20 | 355 | 0.0 | 0.0 | 0.00 | 0.20 | 0.00 | 94 | 1010.5 |
| 20260509100052 | 20 | 355 | 0.0 | 0.0 | 0.00 | 0.20 | 0.00 | 94 | 1010.3 |
| 20260509094551 | 20 | 360 | 0.0 | 0.0 | 0.00 | 0.23 | 0.00 | 94 | 1010.1 |
| 20260509093056 | 20 | 360 | 0.0 | 0.0 | 0.00 | 0.23 | 0.00 | 94 | 1009.5 |
| 20260509091552 | 20 | 360 | 0.0 | 0.0 | 0.00 | 0.23 | 0.00 | 94 | 1009.6 |
| 20260509090050 | 20 | 360 | 0.0 | 0.0 | 0.00 | 0.23 | 0.00 | 94 | 1009.2 |
| 20260509084550 | 20 | 360 | 0.0 | 0.0 | 0.00 | 0.23 | 0.00 | 94 | 1009.1 |
| 20260509083049 | 20 | 360 | 0.0 | 0.0 | 0.00 | 0.23 | 0.00 | 94 | 1009.2 |
| 20260509081550 | 20 | 360 | 0.0 | 9.7 | 0.00 | 0.23 | 0.00 | 94 | 1009.1 |
| 20260509080046 | 20 | 360 | 3.2 | 8.0 | 0.00 | 0.23 | 0.00 | 94 | 1009.0 |
| 20260509074555 | 21 | 360 | 0.0 | 0.0 | 0.00 | 0.23 | 0.00 | 94 | 1009.7 |
| 20260509073045 | 21 | 360 | 0.0 | 0.0 | 0.00 | 0.23 | 0.00 | 94 | 1010.0 |
| 20260509071544 | 21 | 360 | 0.0 | 0.0 | 0.00 | 0.23 | 0.00 | 94 | 1010.2 |
| 20260509070045 | 21 | 360 | 0.0 | 1.6 | 0.00 | 0.23 | 0.00 | 94 | 1009.7 |
| 20260509064557 | 21 | 360 | 0.0 | 1.6 | 0.00 | 0.23 | 0.00 | 94 | 1009.6 |
| 20260509063045 | 21 | 360 | 0.0 | 3.2 | 0.00 | 0.23 | 0.00 | 93 | 1009.9 |
| 20260509061544 | 21 | 360 | 0.0 | 3.2 | 0.00 | 0.23 | 0.00 | 93 | 1010.3 |
| 20260509060041 | 21 | 360 | 0.0 | 3.2 | 0.00 | 0.23 | 0.00 | 93 | 1010.1 |
| 20260509054539 | 21 | 360 | 0.0 | 0.0 | 0.00 | 0.23 | 0.00 | 93 | 1010.1 |
| 20260509053036 | 20 | 360 | 0.0 | 0.0 | 0.00 | 0.23 | 0.00 | 93 | 1009.7 |
| 20260509051536 | 20 | 360 | 0.0 | 0.0 | 0.00 | 0.23 | 0.00 | 93 | 1008.7 |
| 20260509050034 | 20 | 360 | 0.0 | 4.8 | 0.00 | 0.23 | 0.00 | 93 | 1008.4 |
| 20260509044530 | 20 | 360 | 1.6 | 8.0 | 0.00 | 0.23 | 0.23 | 93 | 1008.3 |
| 20260509043029 | 20 | 360 | 0.0 | 6.4 | 0.00 | 0.23 | 0.23 | 94 | 1008.6 |
| 20260509041529 | 20 | 360 | 0.0 | 4.8 | 0.00 | 0.23 | 0.23 | 94 | 1008.7 |
| 20260509040035 | 20 | 360 | 0.0 | 3.2 | 0.00 | 0.23 | 0.23 | 93 | 1008.8 |
| 20260509034541 | 20 | 360 | 0.0 | 0.0 | 0.00 | 0.23 | 0.23 | 93 | 1008.9 |
| 20260509033027 | 20 | 360 | 0.0 | 1.6 | 0.00 | 0.23 | 0.23 | 92 | 1008.7 |
| 20260509031529 | 20 | 360 | 0.0 | 1.6 | 0.00 | 0.23 | 0.23 | 92 | 1008.5 |
| 20260509030027 | 20 | 360 | 0.0 | 0.0 | 0.00 | 0.23 | 0.23 | 92 | 1008.5 |
| 20260509024530 | 20 | 360 | 0.0 | 0.0 | 0.00 | 0.23 | 0.23 | 91 | 1008.2 |
| 20260509023028 | 21 | 360 | 0.0 | 3.2 | 0.00 | 0.23 | 0.23 | 91 | 1008.1 |
| 20260509021525 | 21 | 360 | 0.0 | 6.4 | 0.00 | 0.23 | 0.23 | 90 | 1008.1 |
| 20260509020026 | 21 | 112 | 0.0 | 4.8 | 0.00 | 0.23 | 0.23 | 89 | 1008.0 |
| 20260509014524 | 21 | 111 | 1.6 | 4.8 | 0.00 | 0.23 | 0.23 | 89 | 1008.1 |
| 20260509013024 | 21 | 112 | 0.0 | 9.7 | 0.00 | 0.23 | 0.23 | 88 | 1007.8 |
| 20260509011523 | 21 | 118 | 3.2 | 14.5 | 0.00 | 0.23 | 0.23 | 88 | 1007.6 |
| 20260509010031 | 22 | 128 | 6.4 | 14.5 | 0.00 | 0.23 | 0.23 | 87 | 1007.5 |
| 20260509004533 | 22 | 131 | 9.7 | 16.1 | 0.00 | 0.23 | 0.23 | 86 | 1007.5 |
| 20260509003022 | 22 | 130 | 8.0 | 19.3 | 0.00 | 0.23 | 0.23 | 85 | 1007.3 |
| 20260509001525 | 22 | 136 | 12.9 | 22.5 | 0.00 | 0.23 | 0.23 | 84 | 1007.5 |
| 20260509000020 | 22 | 123 | 8.0 | 22.5 | 0.00 | 0.23 | 0.23 | 84 | 1007.5 |
| 20260508234518 | 22 | 104 | 9.7 | 20.9 | 0.00 | 0.23 | 0.23 | 84 | 1007.6 |
| 20260508233018 | 22 | 103 | 8.0 | 17.7 | 0.00 | 0.23 | 0.23 | 83 | 1007.7 |
| 20260508231517 | 22 | 101 | 12.9 | 22.5 | 0.00 | 0.23 | 0.23 | 81 | 1007.6 |
| 20260508230017 | 22 | 360 | 12.9 | 19.3 | 0.00 | 0.23 | 0.23 | 81 | 1007.7 |
| 20260508224516 | 23 | 360 | 8.0 | 17.7 | 0.00 | 0.23 | 0.23 | 81 | 1007.7 |
| 20260508223015 | 23 | 360 | 12.9 | 19.3 | 0.00 | 0.23 | 0.23 | 80 | 1007.7 |
| 20260508221514 | 23 | 360 | 12.9 | 17.7 | 0.00 | 0.23 | 0.23 | 79 | 1007.8 |
| 20260508220011 | 23 | 120 | 9.7 | 19.3 | 0.00 | 0.23 | 0.23 | 80 | 1008.0 |
| 20260508214510 | 22 | 115 | 16.1 | 20.9 | 0.00 | 0.23 | 0.23 | 80 | 1008.0 |